createdAt,value
2023-04-16T00:00:31.629Z,99.90
2023-04-16T00:02:59.031Z,99.90
2023-04-16T00:05:26.481Z,99.90
2023-04-16T00:07:53.786Z,99.90
2023-04-16T00:10:21.093Z,99.90
2023-04-16T00:12:48.530Z,99.90
2023-04-16T00:15:15.794Z,99.90
2023-04-16T00:17:43.210Z,99.90
2023-04-16T00:20:10.987Z,99.90
2023-04-16T00:22:38.209Z,99.90
2023-04-16T00:25:06.118Z,99.90
2023-04-16T00:27:33.492Z,99.90
2023-04-16T00:30:00.756Z,99.90
2023-04-16T00:32:28.268Z,99.90
2023-04-16T00:34:55.716Z,99.90
2023-04-16T00:37:23.068Z,99.90
2023-04-16T00:39:51.225Z,99.90
2023-04-16T00:42:18.675Z,99.90
2023-04-16T00:44:45.868Z,99.90
2023-04-16T00:47:13.197Z,99.90
2023-04-16T00:49:40.651Z,99.90
2023-04-16T00:52:08.133Z,99.90
2023-04-16T00:54:36.006Z,99.90
2023-04-16T00:57:03.607Z,99.90
2023-04-16T00:59:30.972Z,99.90
2023-04-16T01:01:58.381Z,99.90
2023-04-16T01:04:25.903Z,99.90
2023-04-16T01:06:53.397Z,99.90
2023-04-16T01:09:20.567Z,99.90
2023-04-16T01:11:47.777Z,99.90
2023-04-16T01:14:15.091Z,99.90
2023-04-16T01:16:42.452Z,99.90
2023-04-16T01:19:10.104Z,99.90
2023-04-16T01:21:37.505Z,99.90
2023-04-16T01:24:05.728Z,99.90
2023-04-16T01:26:33.333Z,99.90
2023-04-16T01:29:00.975Z,99.90
2023-04-16T01:31:28.281Z,99.90
2023-04-16T01:33:55.601Z,99.90
2023-04-16T01:38:50.606Z,99.90
2023-04-16T01:41:17.759Z,99.90
2023-04-16T01:43:44.999Z,99.90
2023-04-16T01:46:23.926Z,99.90
2023-04-16T01:48:51.203Z,99.90
2023-04-16T01:51:18.495Z,99.90
2023-04-16T01:53:46.052Z,99.90
2023-04-16T01:56:13.439Z,99.90
2023-04-16T01:58:40.611Z,99.90
2023-04-16T02:01:07.879Z,99.90
2023-04-16T02:03:35.666Z,99.90
2023-04-16T02:06:03.027Z,99.90
2023-04-16T02:08:32.950Z,99.90
2023-04-16T02:11:00.725Z,99.90
2023-04-16T02:13:27.898Z,99.90
2023-04-16T02:15:55.398Z,99.90
2023-04-16T02:18:22.703Z,99.90
2023-04-16T02:20:49.961Z,99.90
2023-04-16T02:23:17.796Z,99.90
2023-04-16T02:25:47.303Z,99.90
2023-04-16T02:28:17.286Z,99.90
2023-04-16T02:30:44.821Z,99.90
2023-04-16T02:33:13.130Z,99.90
2023-04-16T02:35:40.878Z,99.90
2023-04-16T02:38:08.905Z,99.90
2023-04-16T02:40:36.764Z,99.90
2023-04-16T02:43:04.063Z,99.90
2023-04-16T02:45:31.874Z,99.90
2023-04-16T02:47:59.287Z,99.90
2023-04-16T02:50:26.594Z,99.90
2023-04-16T02:52:53.817Z,99.90
2023-04-16T02:55:21.192Z,99.90
2023-04-16T02:57:48.449Z,99.90
2023-04-16T03:00:15.757Z,99.90
2023-04-16T03:02:43.028Z,99.90
2023-04-16T03:05:10.883Z,99.90
2023-04-16T03:07:38.206Z,99.90
2023-04-16T03:10:07.446Z,99.90
2023-04-16T03:12:35.471Z,99.90
2023-04-16T03:15:03.216Z,99.90
2023-04-16T03:17:30.456Z,99.90
2023-04-16T03:19:57.753Z,99.90
2023-04-16T03:22:25.265Z,99.90
2023-04-16T03:24:52.460Z,99.90
2023-04-16T03:27:19.686Z,99.90
2023-04-16T03:32:14.506Z,99.90
2023-04-16T03:34:41.742Z,99.90
2023-04-16T03:37:08.948Z,99.90
2023-04-16T03:39:36.041Z,99.90
2023-04-16T03:42:03.749Z,99.90
2023-04-16T03:44:31.121Z,99.90
2023-04-16T03:46:58.414Z,99.90
2023-04-16T03:49:25.666Z,99.90
2023-04-16T03:51:53.188Z,99.90
2023-04-16T03:54:22.454Z,99.90
2023-04-16T03:56:50.341Z,99.90
2023-04-16T03:59:18.139Z,99.90
2023-04-16T04:01:45.521Z,99.90
2023-04-16T04:04:12.767Z,99.90
2023-04-16T04:06:40.106Z,99.90
2023-04-16T04:09:07.485Z,99.90
2023-04-16T04:11:34.818Z,99.90
2023-04-16T04:14:02.228Z,99.90
2023-04-16T04:16:29.530Z,99.90
2023-04-16T04:18:56.775Z,99.90
2023-04-16T04:21:24.212Z,99.90
2023-04-16T04:23:51.416Z,99.90
2023-04-16T04:26:18.963Z,99.90
2023-04-16T04:28:46.441Z,99.90
2023-04-16T04:31:14.293Z,99.90
2023-04-16T04:33:41.540Z,99.90
2023-04-16T04:36:08.764Z,99.90
2023-04-16T04:38:35.970Z,99.90
2023-04-16T04:41:03.262Z,99.90
2023-04-16T04:43:30.702Z,99.90
2023-04-16T04:46:03.255Z,99.90
2023-04-16T04:48:30.541Z,99.90
2023-04-16T04:50:57.800Z,99.90
2023-04-16T04:53:25.023Z,99.90
2023-04-16T04:55:54.174Z,99.90
2023-04-16T04:58:24.624Z,99.90
2023-04-16T05:00:51.979Z,99.90
2023-04-16T05:03:22.703Z,99.90
2023-04-16T05:05:50.027Z,99.90
2023-04-16T05:08:17.260Z,99.90
2023-04-16T05:10:44.520Z,99.90
2023-04-16T05:13:11.779Z,99.90
2023-04-16T05:15:40.521Z,99.90
2023-04-16T05:18:07.754Z,99.90
2023-04-16T05:20:35.077Z,99.90
2023-04-16T05:23:02.277Z,99.90
2023-04-16T05:25:29.681Z,99.90
2023-04-16T05:27:57.065Z,99.90
2023-04-16T05:30:24.311Z,99.90
2023-04-16T05:32:51.732Z,99.90
2023-04-16T05:35:19.176Z,99.90
2023-04-16T05:37:47.683Z,99.90
2023-04-16T05:40:18.218Z,99.90
2023-04-16T05:42:51.814Z,99.90
2023-04-16T05:45:19.324Z,99.90
2023-04-16T05:47:46.485Z,99.90
2023-04-16T05:50:13.749Z,99.90
2023-04-16T05:52:41.090Z,99.90
2023-04-16T05:55:08.763Z,99.90
2023-04-16T05:57:36.026Z,99.90
2023-04-16T06:00:03.500Z,99.90
2023-04-16T06:02:30.970Z,99.90
2023-04-16T06:04:58.166Z,99.90
2023-04-16T06:07:25.339Z,99.90
2023-04-16T06:09:52.903Z,99.90
2023-04-16T06:12:20.157Z,99.90
2023-04-16T06:14:47.440Z,99.90
2023-04-16T06:17:14.872Z,99.90
2023-04-16T06:19:42.092Z,99.90
2023-04-16T06:22:09.498Z,99.90
2023-04-16T06:24:37.155Z,99.90
2023-04-16T06:27:04.729Z,99.90
2023-04-16T06:29:40.468Z,99.90
2023-04-16T06:32:08.719Z,99.90
2023-04-16T06:34:37.260Z,99.90
2023-04-16T06:37:04.507Z,99.90
2023-04-16T06:39:31.802Z,99.90
2023-04-16T06:41:59.115Z,99.90
2023-04-16T06:44:26.330Z,99.90
2023-04-16T06:46:53.773Z,99.90
2023-04-16T06:49:21.469Z,99.90
2023-04-16T06:51:48.713Z,99.90
2023-04-16T06:56:43.676Z,99.90
2023-04-16T06:59:11.373Z,99.90
2023-04-16T07:01:38.820Z,99.90
2023-04-16T07:04:06.182Z,99.90
2023-04-16T07:06:33.429Z,99.90
2023-04-16T07:09:00.657Z,99.90
2023-04-16T07:11:27.970Z,99.90
2023-04-16T07:13:55.388Z,99.90
2023-04-16T07:16:22.659Z,99.90
2023-04-16T07:18:49.985Z,99.90
2023-04-16T07:21:17.312Z,99.90
2023-04-16T07:23:44.616Z,99.90
2023-04-16T07:26:11.870Z,99.90
2023-04-16T07:28:39.155Z,99.90
2023-04-16T07:31:06.592Z,99.90
2023-04-16T07:33:33.846Z,99.90
2023-04-16T07:36:01.151Z,99.90
2023-04-16T07:38:28.367Z,99.90
2023-04-16T07:40:56.157Z,99.90
2023-04-16T07:43:23.334Z,99.90
2023-04-16T07:45:50.660Z,99.90
2023-04-16T07:48:17.937Z,99.90
2023-04-16T07:50:45.400Z,99.90
2023-04-16T07:55:40.213Z,99.90
2023-04-16T07:58:07.372Z,99.90
2023-04-16T08:00:34.616Z,99.90
2023-04-16T08:03:02.000Z,99.90
2023-04-16T08:05:29.516Z,99.90
2023-04-16T08:07:56.825Z,99.90
2023-04-16T08:10:24.077Z,99.90
2023-04-16T08:12:51.386Z,99.90
2023-04-16T08:15:18.789Z,99.90
2023-04-16T08:17:46.255Z,99.90
2023-04-16T08:20:16.945Z,99.90
2023-04-16T08:22:46.787Z,99.90
2023-04-16T08:25:14.737Z,99.90
2023-04-16T08:27:42.077Z,99.90
2023-04-16T08:30:09.408Z,99.90
2023-04-16T08:32:36.678Z,99.90
2023-04-16T08:35:04.527Z,99.60
2023-04-16T08:37:31.960Z,98.90
2023-04-16T08:39:59.123Z,97.90
2023-04-16T08:42:39.388Z,96.90
2023-04-16T08:45:18.302Z,94.60
2023-04-16T08:47:51.075Z,95.60
2023-04-16T08:50:25.313Z,93.80
2023-04-16T08:53:06.602Z,92.00
2023-04-16T08:55:40.632Z,92.40
2023-04-16T08:58:22.837Z,92.80
2023-04-16T09:00:50.321Z,92.20
2023-04-16T09:03:18.130Z,93.40
2023-04-16T09:05:46.758Z,90.20
2023-04-16T09:08:14.367Z,90.00
2023-04-16T09:10:42.501Z,89.10
2023-04-16T09:13:11.020Z,90.90
2023-04-16T09:15:39.871Z,91.20
2023-04-16T09:18:07.158Z,90.90
2023-04-16T09:20:35.163Z,91.10
2023-04-16T09:23:02.398Z,91.00
2023-04-16T09:25:36.032Z,91.30
2023-04-16T09:28:04.090Z,90.90
2023-04-16T09:30:31.260Z,90.50
2023-04-16T09:33:20.608Z,89.20
2023-04-16T09:35:50.271Z,90.00
2023-04-16T09:38:23.793Z,90.60
2023-04-16T09:41:07.836Z,90.60
2023-04-16T09:43:36.977Z,90.00
2023-04-16T09:46:08.210Z,90.40
2023-04-16T09:48:35.920Z,90.00
2023-04-16T09:51:07.029Z,89.60
2023-04-16T09:53:34.501Z,90.30
2023-04-16T09:56:05.464Z,90.20
2023-04-16T09:58:35.925Z,89.30
2023-04-16T10:01:05.426Z,89.70
2023-04-16T10:03:34.693Z,85.40
2023-04-16T10:06:19.405Z,86.40
2023-04-16T10:08:50.657Z,84.50
2023-04-16T10:11:19.786Z,85.10
2023-04-16T10:13:47.315Z,85.60
2023-04-16T10:16:14.750Z,85.10
2023-04-16T10:18:45.066Z,86.50
2023-04-16T10:21:14.013Z,86.50
2023-04-16T10:23:43.961Z,87.30
2023-04-16T10:26:11.616Z,86.00
2023-04-16T10:28:40.630Z,86.90
2023-04-16T10:31:09.771Z,84.50
2023-04-16T10:33:43.169Z,82.00
2023-04-16T10:36:17.080Z,84.20
2023-04-16T10:38:50.332Z,82.20
2023-04-16T10:41:22.759Z,81.20
2023-04-16T10:43:52.334Z,78.50
2023-04-16T10:46:32.118Z,76.60
2023-04-16T10:49:13.515Z,78.30
2023-04-16T10:51:44.335Z,81.30
2023-04-16T10:54:12.279Z,80.60
2023-04-16T10:56:48.185Z,73.10
2023-04-16T10:59:21.180Z,69.60
2023-04-16T11:01:56.114Z,68.50
2023-04-16T11:04:33.892Z,68.00
2023-04-16T11:07:13.270Z,68.90
2023-04-16T11:10:03.319Z,69.00
2023-04-16T11:15:17.819Z,65.20
2023-04-16T11:17:50.484Z,66.20
2023-04-16T11:20:25.321Z,63.70
2023-04-16T11:22:55.945Z,63.20
2023-04-16T11:25:26.009Z,60.30
2023-04-16T11:27:54.029Z,59.40
2023-04-16T11:30:36.575Z,61.00
2023-04-16T11:33:09.974Z,60.30
2023-04-16T11:35:39.520Z,58.60
2023-04-16T11:38:07.239Z,57.50
2023-04-16T11:40:35.417Z,56.80
2023-04-16T11:43:13.849Z,57.40
2023-04-16T11:48:56.169Z,55.90
2023-04-16T11:51:24.138Z,54.70
2023-04-16T11:53:53.763Z,55.80
2023-04-16T11:56:28.617Z,56.50
2023-04-16T11:59:15.805Z,53.90
2023-04-16T12:01:49.354Z,53.30
2023-04-16T12:04:20.650Z,53.80
2023-04-16T12:07:12.529Z,51.20
2023-04-16T12:09:42.676Z,52.90
2023-04-16T12:12:31.902Z,53.10
2023-04-16T12:15:00.314Z,52.70
2023-04-16T12:17:27.746Z,50.20
2023-04-16T12:20:00.942Z,51.20
2023-04-16T12:22:37.425Z,47.10
2023-04-16T12:25:16.762Z,51.40
2023-04-16T12:30:23.779Z,49.60
2023-04-16T12:33:12.116Z,50.40
2023-04-16T12:35:41.148Z,50.00
2023-04-16T12:40:36.985Z,59.90
2023-04-16T12:43:04.253Z,65.70
2023-04-16T12:45:31.711Z,81.10
2023-04-16T14:29:01.018Z,48.40
2023-04-16T14:31:28.495Z,62.70
2023-04-16T14:33:55.695Z,59.30
2023-04-16T14:36:23.025Z,57.70
2023-04-16T14:38:50.400Z,57.70
2023-04-16T14:41:17.715Z,53.20
2023-04-16T14:43:45.225Z,49.40
2023-04-16T14:46:12.667Z,48.90
2023-04-16T14:48:40.274Z,46.10
2023-04-16T14:51:07.520Z,51.90
2023-04-16T14:53:34.919Z,51.50
2023-04-16T14:56:02.324Z,49.30
2023-04-16T14:58:29.805Z,48.50
2023-04-16T15:00:59.097Z,45.90
2023-04-16T15:03:26.738Z,48.90
2023-04-16T15:15:46.356Z,41.70
2023-04-16T15:18:13.742Z,42.30
2023-04-16T15:20:41.075Z,40.60
2023-04-16T15:23:08.676Z,38.80
2023-04-16T15:25:36.046Z,40.90
2023-04-16T15:28:03.421Z,38.20
2023-04-16T15:30:31.628Z,38.90
2023-04-16T15:32:59.614Z,39.00
2023-04-16T15:35:26.905Z,40.10
2023-04-16T15:37:57.276Z,40.80
2023-04-16T15:40:25.555Z,40.10
2023-04-16T15:42:52.737Z,38.60
2023-04-16T15:45:20.097Z,40.00
2023-04-16T15:47:47.563Z,42.10
2023-04-16T15:50:15.195Z,43.10
2023-04-16T15:52:42.531Z,45.90
2023-04-16T15:55:10.325Z,44.10
2023-04-16T15:57:37.545Z,43.70
2023-04-16T16:00:07.373Z,46.90
2023-04-16T16:02:35.236Z,46.90
2023-04-16T16:05:03.127Z,46.30
2023-04-16T16:07:31.440Z,44.50
2023-04-16T16:09:58.848Z,44.80
2023-04-16T16:12:26.060Z,46.30
2023-04-16T16:14:53.353Z,44.40
2023-04-16T16:17:20.616Z,44.80
2023-04-16T16:19:48.125Z,45.70
2023-04-16T16:22:15.540Z,46.70
2023-04-16T16:24:42.935Z,47.10
2023-04-16T16:27:10.225Z,46.20
2023-04-16T16:29:37.519Z,47.50
2023-04-16T16:32:05.253Z,46.90
2023-04-16T16:34:32.759Z,45.70
2023-04-16T16:36:59.965Z,46.40
2023-04-16T16:39:27.654Z,46.80
2023-04-16T16:41:55.064Z,47.40
2023-04-16T16:44:23.085Z,46.40
2023-04-16T16:46:51.045Z,46.90
2023-04-16T16:49:18.754Z,55.10
2023-04-16T16:51:47.039Z,56.20
2023-04-16T16:54:14.888Z,56.00
2023-04-16T16:56:42.567Z,53.80
2023-04-16T16:59:10.852Z,64.90
2023-04-16T17:01:38.452Z,67.50
2023-04-16T17:04:06.082Z,75.70
2023-04-16T17:06:33.760Z,59.80
2023-04-16T17:09:02.248Z,71.80
2023-04-16T17:13:57.216Z,59.90
2023-04-16T17:16:25.019Z,64.30
2023-04-16T17:18:52.288Z,63.80
2023-04-16T17:21:19.402Z,63.70
2023-04-16T17:23:46.643Z,66.40
2023-04-16T17:26:14.386Z,70.10
2023-04-16T17:28:41.675Z,72.80
2023-04-16T17:31:08.912Z,74.80
2023-04-16T17:33:36.755Z,69.90
2023-04-16T17:36:04.900Z,71.50
2023-04-16T17:38:32.885Z,72.90
2023-04-16T17:41:00.382Z,74.70
2023-04-16T17:43:28.549Z,73.50
2023-04-16T17:45:56.390Z,69.60
2023-04-16T17:48:23.625Z,73.60
2023-04-16T17:50:51.008Z,76.40
2023-04-16T17:53:18.302Z,75.90
2023-04-16T17:55:54.547Z,77.50
2023-04-16T17:58:23.882Z,78.90
2023-04-16T18:00:51.339Z,80.10
2023-04-16T18:03:20.697Z,79.10
2023-04-16T18:05:49.438Z,77.30
2023-04-16T18:08:17.442Z,75.40
2023-04-16T18:10:45.505Z,76.60
2023-04-16T18:13:12.973Z,71.80
2023-04-16T18:15:40.613Z,75.40
2023-04-16T18:18:08.553Z,65.00
2023-04-16T18:20:35.922Z,65.70
2023-04-16T18:23:03.701Z,66.20
2023-04-16T18:25:34.960Z,67.00
2023-04-16T18:28:03.268Z,68.00
2023-04-16T18:30:31.010Z,68.10
2023-04-16T18:35:28.931Z,69.70
2023-04-16T18:37:56.388Z,69.80
2023-04-16T18:40:23.993Z,70.30
2023-04-16T18:42:52.992Z,67.70
2023-04-16T18:45:21.918Z,70.10
2023-04-16T18:47:49.801Z,71.70
2023-04-16T18:50:18.720Z,71.90
2023-04-16T18:52:46.335Z,71.90
2023-04-16T18:55:16.699Z,71.20
2023-04-16T18:57:44.550Z,71.90
2023-04-16T19:00:13.086Z,73.70
2023-04-16T19:02:40.806Z,74.30
2023-04-16T19:05:09.828Z,74.60
2023-04-16T19:07:37.687Z,75.40
2023-04-16T19:10:06.171Z,75.90
2023-04-16T19:12:33.452Z,76.20
2023-04-16T19:15:01.166Z,76.40
2023-04-16T19:17:28.611Z,77.00
2023-04-16T19:19:56.089Z,76.80
2023-04-16T19:22:23.656Z,77.50
2023-04-16T19:24:51.011Z,77.00
2023-04-16T19:27:18.480Z,77.40
2023-04-16T19:29:45.673Z,78.10
2023-04-16T19:32:14.135Z,79.00
2023-04-16T19:34:41.606Z,79.30
2023-04-16T19:37:08.881Z,79.50
2023-04-16T19:39:36.480Z,80.20
2023-04-16T19:42:04.471Z,81.00
2023-04-16T19:44:31.646Z,81.00
2023-04-16T19:46:59.590Z,80.80
2023-04-16T19:49:27.248Z,81.10
2023-04-16T19:51:54.504Z,81.40
2023-04-16T19:54:21.715Z,82.40
2023-04-16T19:56:50.288Z,83.90
2023-04-16T19:59:18.298Z,84.60
2023-04-16T20:01:46.510Z,85.20
2023-04-16T20:04:13.750Z,85.30
2023-04-16T20:06:41.493Z,84.70
2023-04-16T20:09:08.897Z,85.00
2023-04-16T20:11:36.208Z,85.90
2023-04-16T20:14:03.893Z,86.00
2023-04-16T20:16:31.379Z,86.10
2023-04-16T20:18:59.793Z,86.90
2023-04-16T20:21:28.024Z,87.60
2023-04-16T20:23:55.251Z,87.90
2023-04-16T20:28:50.368Z,87.40
2023-04-16T20:31:17.897Z,88.60
2023-04-16T20:33:45.595Z,89.20
2023-04-16T20:36:12.881Z,89.30
2023-04-16T20:38:40.124Z,88.10
2023-04-16T20:41:07.400Z,89.00
2023-04-16T20:43:34.596Z,90.10
2023-04-16T20:46:01.866Z,90.00
2023-04-16T20:48:29.126Z,90.40
2023-04-16T20:51:04.539Z,90.10
2023-04-16T20:53:32.884Z,90.60
2023-04-16T20:56:00.413Z,90.90
2023-04-16T20:58:27.811Z,90.70
2023-04-16T21:00:57.494Z,91.00
2023-04-16T21:03:26.258Z,90.70
2023-04-16T21:05:55.672Z,90.90
2023-04-16T21:08:24.420Z,91.50
2023-04-16T21:10:51.859Z,91.70
2023-04-16T21:13:19.648Z,91.70
2023-04-16T21:15:47.062Z,91.10
2023-04-16T21:18:14.664Z,91.40
2023-04-16T21:20:41.856Z,91.90
2023-04-16T21:25:36.760Z,91.60
2023-04-16T21:28:04.110Z,92.10
2023-04-16T21:30:31.253Z,92.60
2023-04-16T21:32:58.691Z,92.60
2023-04-16T21:35:26.133Z,92.60
2023-04-16T21:37:53.509Z,92.80
2023-04-16T21:40:20.835Z,93.00
2023-04-16T21:45:15.642Z,93.10
2023-04-16T21:47:43.011Z,93.50
2023-04-16T21:50:11.015Z,93.70
2023-04-16T21:52:38.338Z,93.90
2023-04-16T21:55:08.038Z,94.20
2023-04-16T21:57:35.288Z,94.20
2023-04-16T22:00:02.848Z,94.10
2023-04-16T22:02:30.190Z,94.10
2023-04-16T22:04:57.403Z,94.40
2023-04-16T22:07:24.532Z,94.60
2023-04-16T22:09:51.664Z,94.70
2023-04-16T22:12:18.938Z,94.80
2023-04-16T22:14:59.558Z,94.70
2023-04-16T22:17:29.433Z,94.50
2023-04-16T22:19:56.718Z,94.70
2023-04-16T22:22:23.974Z,95.00
2023-04-16T22:24:51.264Z,95.00
2023-04-16T22:27:18.921Z,95.20
2023-04-16T22:29:46.241Z,95.30
2023-04-16T22:32:13.475Z,95.10
2023-04-16T22:34:40.778Z,95.50
2023-04-16T22:37:08.133Z,95.50
2023-04-16T22:39:35.434Z,95.80
2023-04-16T22:42:02.687Z,95.80
2023-04-16T22:44:29.865Z,95.90
2023-04-16T22:46:57.238Z,95.90
2023-04-16T22:49:24.482Z,96.00
2023-04-16T22:51:51.686Z,96.10
2023-04-16T22:54:18.878Z,96.30
2023-04-16T22:56:46.509Z,96.30
2023-04-16T22:59:13.880Z,96.30
2023-04-16T23:01:41.199Z,96.30
2023-04-16T23:04:08.556Z,96.40
2023-04-16T23:06:35.821Z,96.50
2023-04-16T23:09:03.096Z,96.60
2023-04-16T23:11:30.281Z,96.70
2023-04-16T23:13:57.637Z,96.80
2023-04-16T23:16:24.915Z,96.90
2023-04-16T23:18:52.137Z,97.00
2023-04-16T23:21:19.231Z,97.00
2023-04-16T23:23:46.507Z,96.80
2023-04-16T23:26:13.908Z,97.30
2023-04-16T23:28:41.523Z,97.00
2023-04-16T23:31:08.962Z,96.90
2023-04-16T23:33:36.144Z,97.00
2023-04-16T23:36:03.665Z,97.20
2023-04-16T23:38:30.939Z,97.20
2023-04-16T23:40:58.130Z,97.00
2023-04-16T23:43:25.416Z,97.30
2023-04-16T23:45:52.709Z,97.30
2023-04-16T23:48:20.070Z,97.20
2023-04-16T23:50:47.546Z,97.30
2023-04-16T23:53:14.776Z,97.90
2023-04-16T23:55:42.040Z,97.80
2023-04-16T23:58:09.273Z,97.90
